sensor_id;sensor_type;location;lat;lon;timestamp;P1;durP1;ratioP1;P2;durP2;ratioP2
82952;SDS011;74888;40.196;44.560;2024-01-06T00:02:01;9.10;;;3.55;;
82952;SDS011;74888;40.196;44.560;2024-01-06T00:04:27;7.22;;;3.30;;
82952;SDS011;74888;40.196;44.560;2024-01-06T00:06:53;9.43;;;3.60;;
82952;SDS011;74888;40.196;44.560;2024-01-06T00:09:19;9.77;;;3.75;;
82952;SDS011;74888;40.196;44.560;2024-01-06T00:11:45;10.82;;;3.65;;
82952;SDS011;74888;40.196;44.560;2024-01-06T00:14:11;10.93;;;4.45;;
82952;SDS011;74888;40.196;44.560;2024-01-06T00:16:36;9.55;;;4.40;;
82952;SDS011;74888;40.196;44.560;2024-01-06T00:19:02;10.18;;;4.38;;
82952;SDS011;74888;40.196;44.560;2024-01-06T00:21:28;10.38;;;4.35;;
82952;SDS011;74888;40.196;44.560;2024-01-06T00:23:55;10.57;;;4.90;;
82952;SDS011;74888;40.196;44.560;2024-01-06T00:26:21;11.25;;;4.85;;
82952;SDS011;74888;40.196;44.560;2024-01-06T00:28:47;11.18;;;4.85;;
82952;SDS011;74888;40.196;44.560;2024-01-06T00:31:15;10.13;;;4.60;;
82952;SDS011;74888;40.196;44.560;2024-01-06T00:33:45;11.52;;;4.95;;
82952;SDS011;74888;40.196;44.560;2024-01-06T00:36:10;13.20;;;5.72;;
82952;SDS011;74888;40.196;44.560;2024-01-06T00:38:36;12.65;;;5.53;;
82952;SDS011;74888;40.196;44.560;2024-01-06T00:41:02;12.90;;;5.63;;
82952;SDS011;74888;40.196;44.560;2024-01-06T00:43:27;13.15;;;6.60;;
82952;SDS011;74888;40.196;44.560;2024-01-06T00:45:53;12.10;;;6.50;;
82952;SDS011;74888;40.196;44.560;2024-01-06T00:48:19;17.42;;;8.25;;
82952;SDS011;74888;40.196;44.560;2024-01-06T00:50:45;17.15;;;7.90;;
82952;SDS011;74888;40.196;44.560;2024-01-06T00:53:11;19.90;;;8.27;;
82952;SDS011;74888;40.196;44.560;2024-01-06T00:55:38;17.38;;;8.48;;
82952;SDS011;74888;40.196;44.560;2024-01-06T00:58:04;17.23;;;8.70;;
82952;SDS011;74888;40.196;44.560;2024-01-06T01:00:29;17.10;;;7.97;;
82952;SDS011;74888;40.196;44.560;2024-01-06T01:02:55;15.68;;;8.00;;
82952;SDS011;74888;40.196;44.560;2024-01-06T01:05:21;17.02;;;7.97;;
82952;SDS011;74888;40.196;44.560;2024-01-06T01:07:46;17.13;;;7.72;;
82952;SDS011;74888;40.196;44.560;2024-01-06T01:10:13;16.67;;;7.88;;
82952;SDS011;74888;40.196;44.560;2024-01-06T01:12:38;16.75;;;7.93;;
82952;SDS011;74888;40.196;44.560;2024-01-06T01:15:04;17.10;;;7.65;;
82952;SDS011;74888;40.196;44.560;2024-01-06T01:17:31;15.25;;;6.75;;
82952;SDS011;74888;40.196;44.560;2024-01-06T01:19:57;14.45;;;6.30;;
82952;SDS011;74888;40.196;44.560;2024-01-06T01:22:22;14.27;;;6.25;;
82952;SDS011;74888;40.196;44.560;2024-01-06T01:24:48;13.40;;;6.10;;
82952;SDS011;74888;40.196;44.560;2024-01-06T01:27:15;14.10;;;6.30;;
82952;SDS011;74888;40.196;44.560;2024-01-06T01:29:40;14.98;;;6.38;;
82952;SDS011;74888;40.196;44.560;2024-01-06T01:32:06;13.82;;;6.15;;
82952;SDS011;74888;40.196;44.560;2024-01-06T01:34:32;15.32;;;6.75;;
82952;SDS011;74888;40.196;44.560;2024-01-06T01:36:57;14.15;;;6.78;;
82952;SDS011;74888;40.196;44.560;2024-01-06T01:39:24;14.75;;;7.00;;
82952;SDS011;74888;40.196;44.560;2024-01-06T01:41:50;14.88;;;6.82;;
82952;SDS011;74888;40.196;44.560;2024-01-06T01:44:15;16.17;;;7.22;;
82952;SDS011;74888;40.196;44.560;2024-01-06T01:46:41;14.95;;;7.55;;
82952;SDS011;74888;40.196;44.560;2024-01-06T01:49:07;21.50;;;9.57;;
82952;SDS011;74888;40.196;44.560;2024-01-06T01:51:34;16.92;;;8.13;;
82952;SDS011;74888;40.196;44.560;2024-01-06T01:54:04;18.58;;;7.85;;
82952;SDS011;74888;40.196;44.560;2024-01-06T01:56:31;18.95;;;8.75;;
82952;SDS011;74888;40.196;44.560;2024-01-06T01:59:08;20.08;;;9.15;;
82952;SDS011;74888;40.196;44.560;2024-01-06T02:01:38;16.98;;;8.35;;
82952;SDS011;74888;40.196;44.560;2024-01-06T02:04:05;20.27;;;9.02;;
82952;SDS011;74888;40.196;44.560;2024-01-06T02:06:31;19.95;;;8.65;;
82952;SDS011;74888;40.196;44.560;2024-01-06T02:08:56;17.15;;;8.10;;
82952;SDS011;74888;40.196;44.560;2024-01-06T02:11:23;17.35;;;7.78;;
82952;SDS011;74888;40.196;44.560;2024-01-06T02:13:49;19.77;;;8.10;;
82952;SDS011;74888;40.196;44.560;2024-01-06T02:16:15;16.92;;;7.63;;
82952;SDS011;74888;40.196;44.560;2024-01-06T02:18:42;14.32;;;7.13;;
82952;SDS011;74888;40.196;44.560;2024-01-06T02:21:07;18.48;;;7.90;;
82952;SDS011;74888;40.196;44.560;2024-01-06T02:23:34;17.42;;;8.00;;
82952;SDS011;74888;40.196;44.560;2024-01-06T02:26:02;19.25;;;8.10;;
82952;SDS011;74888;40.196;44.560;2024-01-06T02:28:28;17.40;;;7.95;;
82952;SDS011;74888;40.196;44.560;2024-01-06T02:30:54;28.73;;;9.52;;
82952;SDS011;74888;40.196;44.560;2024-01-06T02:33:20;19.63;;;8.90;;
82952;SDS011;74888;40.196;44.560;2024-01-06T02:35:47;16.98;;;7.88;;
82952;SDS011;74888;40.196;44.560;2024-01-06T02:38:13;16.05;;;7.88;;
82952;SDS011;74888;40.196;44.560;2024-01-06T02:40:39;16.70;;;7.40;;
82952;SDS011;74888;40.196;44.560;2024-01-06T02:43:05;18.23;;;7.65;;
82952;SDS011;74888;40.196;44.560;2024-01-06T02:45:31;15.80;;;7.00;;
82952;SDS011;74888;40.196;44.560;2024-01-06T02:47:58;15.48;;;6.05;;
82952;SDS011;74888;40.196;44.560;2024-01-06T02:50:24;12.52;;;4.88;;
82952;SDS011;74888;40.196;44.560;2024-01-06T02:52:49;11.30;;;4.85;;
82952;SDS011;74888;40.196;44.560;2024-01-06T02:55:15;9.60;;;3.60;;
82952;SDS011;74888;40.196;44.560;2024-01-06T02:57:41;11.27;;;3.92;;
82952;SDS011;74888;40.196;44.560;2024-01-06T03:00:07;9.00;;;3.20;;
82952;SDS011;74888;40.196;44.560;2024-01-06T03:02:33;10.52;;;3.03;;
82952;SDS011;74888;40.196;44.560;2024-01-06T03:05:01;7.15;;;2.20;;
82952;SDS011;74888;40.196;44.560;2024-01-06T03:07:27;5.80;;;1.98;;
82952;SDS011;74888;40.196;44.560;2024-01-06T03:09:52;6.47;;;2.38;;
82952;SDS011;74888;40.196;44.560;2024-01-06T03:14:48;8.63;;;2.88;;
82952;SDS011;74888;40.196;44.560;2024-01-06T03:17:13;8.35;;;2.63;;
82952;SDS011;74888;40.196;44.560;2024-01-06T03:19:40;8.48;;;3.13;;
82952;SDS011;74888;40.196;44.560;2024-01-06T03:22:05;6.88;;;2.63;;
82952;SDS011;74888;40.196;44.560;2024-01-06T03:24:31;6.88;;;2.42;;
82952;SDS011;74888;40.196;44.560;2024-01-06T03:26:57;6.78;;;2.47;;
82952;SDS011;74888;40.196;44.560;2024-01-06T03:29:24;8.90;;;3.13;;
82952;SDS011;74888;40.196;44.560;2024-01-06T03:31:50;8.00;;;2.85;;
82952;SDS011;74888;40.196;44.560;2024-01-06T03:34:15;8.80;;;3.15;;
82952;SDS011;74888;40.196;44.560;2024-01-06T03:36:41;8.52;;;3.15;;
82952;SDS011;74888;40.196;44.560;2024-01-06T03:39:09;9.18;;;3.08;;
82952;SDS011;74888;40.196;44.560;2024-01-06T03:41:36;8.25;;;3.63;;
82952;SDS011;74888;40.196;44.560;2024-01-06T03:44:03;8.50;;;3.45;;
82952;SDS011;74888;40.196;44.560;2024-01-06T03:46:29;9.32;;;3.00;;
82952;SDS011;74888;40.196;44.560;2024-01-06T03:48:56;8.35;;;3.38;;
82952;SDS011;74888;40.196;44.560;2024-01-06T03:51:21;7.18;;;2.78;;
82952;SDS011;74888;40.196;44.560;2024-01-06T03:53:47;6.57;;;2.55;;
82952;SDS011;74888;40.196;44.560;2024-01-06T03:56:13;7.10;;;2.80;;
82952;SDS011;74888;40.196;44.560;2024-01-06T03:58:39;7.10;;;2.90;;
82952;SDS011;74888;40.196;44.560;2024-01-06T04:01:05;9.55;;;3.22;;
82952;SDS011;74888;40.196;44.560;2024-01-06T04:03:31;53.95;;;14.60;;
82952;SDS011;74888;40.196;44.560;2024-01-06T04:05:57;36.22;;;11.25;;
82952;SDS011;74888;40.196;44.560;2024-01-06T04:08:28;36.15;;;10.02;;
82952;SDS011;74888;40.196;44.560;2024-01-06T04:10:54;59.25;;;16.13;;
82952;SDS011;74888;40.196;44.560;2024-01-06T04:13:20;41.53;;;13.93;;
82952;SDS011;74888;40.196;44.560;2024-01-06T04:15:46;34.80;;;12.75;;
82952;SDS011;74888;40.196;44.560;2024-01-06T04:18:11;14.45;;;6.50;;
82952;SDS011;74888;40.196;44.560;2024-01-06T04:20:38;9.73;;;4.05;;
82952;SDS011;74888;40.196;44.560;2024-01-06T04:23:05;12.55;;;4.47;;
82952;SDS011;74888;40.196;44.560;2024-01-06T04:25:30;9.25;;;4.15;;
82952;SDS011;74888;40.196;44.560;2024-01-06T04:27:56;9.50;;;4.10;;
82952;SDS011;74888;40.196;44.560;2024-01-06T04:30:21;9.85;;;3.85;;
82952;SDS011;74888;40.196;44.560;2024-01-06T04:32:47;8.70;;;3.63;;
82952;SDS011;74888;40.196;44.560;2024-01-06T04:35:13;9.85;;;4.38;;
82952;SDS011;74888;40.196;44.560;2024-01-06T04:37:42;8.15;;;3.50;;
82952;SDS011;74888;40.196;44.560;2024-01-06T04:40:07;8.80;;;3.40;;
82952;SDS011;74888;40.196;44.560;2024-01-06T04:42:33;8.10;;;3.20;;
82952;SDS011;74888;40.196;44.560;2024-01-06T04:45:00;8.00;;;3.28;;
82952;SDS011;74888;40.196;44.560;2024-01-06T04:47:27;8.75;;;3.20;;
82952;SDS011;74888;40.196;44.560;2024-01-06T04:49:54;9.18;;;3.20;;
82952;SDS011;74888;40.196;44.560;2024-01-06T04:52:19;7.72;;;3.03;;
82952;SDS011;74888;40.196;44.560;2024-01-06T04:54:45;10.00;;;3.25;;
82952;SDS011;74888;40.196;44.560;2024-01-06T04:57:16;8.00;;;3.75;;
82952;SDS011;74888;40.196;44.560;2024-01-06T04:59:42;11.23;;;3.70;;
82952;SDS011;74888;40.196;44.560;2024-01-06T05:02:08;9.57;;;3.58;;
82952;SDS011;74888;40.196;44.560;2024-01-06T05:04:33;9.38;;;3.75;;
82952;SDS011;74888;40.196;44.560;2024-01-06T05:06:59;7.68;;;2.90;;
82952;SDS011;74888;40.196;44.560;2024-01-06T05:09:25;9.82;;;3.80;;
82952;SDS011;74888;40.196;44.560;2024-01-06T05:11:51;10.30;;;4.00;;
82952;SDS011;74888;40.196;44.560;2024-01-06T05:14:16;7.28;;;2.92;;
82952;SDS011;74888;40.196;44.560;2024-01-06T05:16:42;8.63;;;3.03;;
82952;SDS011;74888;40.196;44.560;2024-01-06T05:19:08;7.43;;;2.47;;
82952;SDS011;74888;40.196;44.560;2024-01-06T05:21:35;5.72;;;2.40;;
82952;SDS011;74888;40.196;44.560;2024-01-06T05:24:02;5.30;;;2.42;;
82952;SDS011;74888;40.196;44.560;2024-01-06T05:26:30;8.00;;;2.75;;
82952;SDS011;74888;40.196;44.560;2024-01-06T05:28:56;7.50;;;2.80;;
82952;SDS011;74888;40.196;44.560;2024-01-06T05:31:22;7.63;;;2.70;;
82952;SDS011;74888;40.196;44.560;2024-01-06T05:33:47;8.32;;;2.97;;
82952;SDS011;74888;40.196;44.560;2024-01-06T05:36:13;8.80;;;3.35;;
82952;SDS011;74888;40.196;44.560;2024-01-06T05:38:39;11.65;;;3.67;;
82952;SDS011;74888;40.196;44.560;2024-01-06T05:41:04;8.15;;;3.22;;
82952;SDS011;74888;40.196;44.560;2024-01-06T05:43:32;9.65;;;3.38;;
82952;SDS011;74888;40.196;44.560;2024-01-06T05:45:58;11.10;;;3.60;;
82952;SDS011;74888;40.196;44.560;2024-01-06T05:48:23;9.07;;;3.17;;
82952;SDS011;74888;40.196;44.560;2024-01-06T05:50:50;5.47;;;2.63;;
82952;SDS011;74888;40.196;44.560;2024-01-06T05:53:17;7.40;;;2.30;;
82952;SDS011;74888;40.196;44.560;2024-01-06T05:55:43;7.57;;;2.33;;
82952;SDS011;74888;40.196;44.560;2024-01-06T05:58:09;6.50;;;1.98;;
82952;SDS011;74888;40.196;44.560;2024-01-06T06:00:35;5.75;;;1.90;;
82952;SDS011;74888;40.196;44.560;2024-01-06T06:03:00;6.60;;;2.25;;
82952;SDS011;74888;40.196;44.560;2024-01-06T06:05:27;6.03;;;1.88;;
82952;SDS011;74888;40.196;44.560;2024-01-06T06:07:53;7.05;;;1.80;;
82952;SDS011;74888;40.196;44.560;2024-01-06T06:10:19;8.93;;;2.05;;
82952;SDS011;74888;40.196;44.560;2024-01-06T06:12:45;6.50;;;2.10;;
82952;SDS011;74888;40.196;44.560;2024-01-06T06:15:12;6.70;;;2.17;;
82952;SDS011;74888;40.196;44.560;2024-01-06T06:17:38;7.70;;;2.33;;
82952;SDS011;74888;40.196;44.560;2024-01-06T06:20:06;4.95;;;1.85;;
82952;SDS011;74888;40.196;44.560;2024-01-06T06:22:32;4.57;;;1.95;;
82952;SDS011;74888;40.196;44.560;2024-01-06T06:24:59;8.05;;;2.03;;
82952;SDS011;74888;40.196;44.560;2024-01-06T06:27:25;9.73;;;2.28;;
82952;SDS011;74888;40.196;44.560;2024-01-06T06:29:53;9.85;;;4.20;;
82952;SDS011;74888;40.196;44.560;2024-01-06T06:32:19;4.63;;;1.45;;
82952;SDS011;74888;40.196;44.560;2024-01-06T06:34:46;4.65;;;1.40;;
82952;SDS011;74888;40.196;44.560;2024-01-06T06:37:13;3.80;;;1.60;;
82952;SDS011;74888;40.196;44.560;2024-01-06T06:39:38;5.18;;;1.60;;
82952;SDS011;74888;40.196;44.560;2024-01-06T06:42:04;10.45;;;3.03;;
82952;SDS011;74888;40.196;44.560;2024-01-06T06:44:30;4.15;;;1.45;;
82952;SDS011;74888;40.196;44.560;2024-01-06T06:46:56;9.75;;;3.40;;
82952;SDS011;74888;40.196;44.560;2024-01-06T06:49:22;10.13;;;3.28;;
82952;SDS011;74888;40.196;44.560;2024-01-06T06:51:48;6.22;;;2.20;;
82952;SDS011;74888;40.196;44.560;2024-01-06T06:54:15;4.53;;;1.67;;
82952;SDS011;74888;40.196;44.560;2024-01-06T06:56:43;5.40;;;2.20;;
82952;SDS011;74888;40.196;44.560;2024-01-06T06:59:10;4.60;;;1.48;;
82952;SDS011;74888;40.196;44.560;2024-01-06T07:01:36;4.15;;;1.52;;
82952;SDS011;74888;40.196;44.560;2024-01-06T07:04:05;5.47;;;2.00;;
82952;SDS011;74888;40.196;44.560;2024-01-06T07:08:59;5.88;;;2.42;;
82952;SDS011;74888;40.196;44.560;2024-01-06T07:11:25;6.05;;;2.13;;
82952;SDS011;74888;40.196;44.560;2024-01-06T07:13:50;5.32;;;2.30;;
82952;SDS011;74888;40.196;44.560;2024-01-06T07:16:16;5.20;;;1.95;;
82952;SDS011;74888;40.196;44.560;2024-01-06T07:18:43;5.43;;;1.80;;
82952;SDS011;74888;40.196;44.560;2024-01-06T07:21:08;6.50;;;1.70;;
82952;SDS011;74888;40.196;44.560;2024-01-06T07:23:34;3.85;;;1.45;;
82952;SDS011;74888;40.196;44.560;2024-01-06T07:26:01;5.07;;;1.50;;
82952;SDS011;74888;40.196;44.560;2024-01-06T07:28:32;4.43;;;1.55;;
82952;SDS011;74888;40.196;44.560;2024-01-06T07:31:00;4.28;;;1.55;;
82952;SDS011;74888;40.196;44.560;2024-01-06T07:33:26;4.07;;;1.45;;
82952;SDS011;74888;40.196;44.560;2024-01-06T07:35:51;4.18;;;1.40;;
82952;SDS011;74888;40.196;44.560;2024-01-06T07:38:17;5.40;;;1.63;;
82952;SDS011;74888;40.196;44.560;2024-01-06T07:40:44;5.50;;;1.58;;
82952;SDS011;74888;40.196;44.560;2024-01-06T07:43:10;6.47;;;1.80;;
82952;SDS011;74888;40.196;44.560;2024-01-06T07:45:36;4.57;;;1.70;;
82952;SDS011;74888;40.196;44.560;2024-01-06T07:48:02;4.90;;;1.80;;
82952;SDS011;74888;40.196;44.560;2024-01-06T07:50:28;4.80;;;1.75;;
82952;SDS011;74888;40.196;44.560;2024-01-06T07:52:54;4.65;;;1.85;;
82952;SDS011;74888;40.196;44.560;2024-01-06T07:55:20;7.07;;;2.42;;
82952;SDS011;74888;40.196;44.560;2024-01-06T07:57:46;4.68;;;1.85;;
82952;SDS011;74888;40.196;44.560;2024-01-06T08:00:12;4.70;;;1.75;;
82952;SDS011;74888;40.196;44.560;2024-01-06T08:02:41;5.28;;;2.08;;
82952;SDS011;74888;40.196;44.560;2024-01-06T08:05:07;6.95;;;2.33;;
82952;SDS011;74888;40.196;44.560;2024-01-06T08:07:34;5.13;;;2.40;;
82952;SDS011;74888;40.196;44.560;2024-01-06T08:09:59;5.90;;;2.55;;
82952;SDS011;74888;40.196;44.560;2024-01-06T08:12:26;8.43;;;2.88;;
82952;SDS011;74888;40.196;44.560;2024-01-06T08:14:53;5.70;;;2.33;;
82952;SDS011;74888;40.196;44.560;2024-01-06T08:17:19;8.93;;;2.67;;
82952;SDS011;74888;40.196;44.560;2024-01-06T08:19:44;5.53;;;2.63;;
82952;SDS011;74888;40.196;44.560;2024-01-06T08:22:13;7.40;;;3.00;;
82952;SDS011;74888;40.196;44.560;2024-01-06T08:24:39;7.82;;;3.33;;
82952;SDS011;74888;40.196;44.560;2024-01-06T08:27:05;8.38;;;3.30;;
82952;SDS011;74888;40.196;44.560;2024-01-06T08:29:30;7.78;;;2.90;;
82952;SDS011;74888;40.196;44.560;2024-01-06T08:31:57;6.50;;;2.85;;
82952;SDS011;74888;40.196;44.560;2024-01-06T08:34:23;9.48;;;3.80;;
82952;SDS011;74888;40.196;44.560;2024-01-06T08:36:50;8.23;;;3.72;;
82952;SDS011;74888;40.196;44.560;2024-01-06T08:39:16;7.32;;;3.38;;
82952;SDS011;74888;40.196;44.560;2024-01-06T08:41:42;10.23;;;3.33;;
82952;SDS011;74888;40.196;44.560;2024-01-06T08:44:07;11.55;;;4.25;;
82952;SDS011;74888;40.196;44.560;2024-01-06T08:46:34;8.05;;;3.40;;
82952;SDS011;74888;40.196;44.560;2024-01-06T08:49:00;10.57;;;3.88;;
82952;SDS011;74888;40.196;44.560;2024-01-06T08:51:26;10.10;;;4.07;;
82952;SDS011;74888;40.196;44.560;2024-01-06T08:53:52;8.40;;;3.10;;
82952;SDS011;74888;40.196;44.560;2024-01-06T08:56:18;8.73;;;3.00;;
82952;SDS011;74888;40.196;44.560;2024-01-06T08:58:45;6.97;;;3.28;;
82952;SDS011;74888;40.196;44.560;2024-01-06T09:01:13;9.73;;;3.72;;
82952;SDS011;74888;40.196;44.560;2024-01-06T09:03:41;7.60;;;2.70;;
82952;SDS011;74888;40.196;44.560;2024-01-06T09:06:07;6.18;;;2.58;;
82952;SDS011;74888;40.196;44.560;2024-01-06T09:08:33;7.15;;;2.70;;
82952;SDS011;74888;40.196;44.560;2024-01-06T09:11:01;8.95;;;3.00;;
82952;SDS011;74888;40.196;44.560;2024-01-06T09:13:27;7.70;;;2.95;;
82952;SDS011;74888;40.196;44.560;2024-01-06T09:15:52;7.82;;;2.70;;
82952;SDS011;74888;40.196;44.560;2024-01-06T09:18:19;11.55;;;4.38;;
82952;SDS011;74888;40.196;44.560;2024-01-06T09:20:45;7.95;;;3.05;;
82952;SDS011;74888;40.196;44.560;2024-01-06T09:23:13;8.73;;;3.67;;
82952;SDS011;74888;40.196;44.560;2024-01-06T09:25:39;7.18;;;2.25;;
82952;SDS011;74888;40.196;44.560;2024-01-06T09:28:05;7.25;;;2.92;;
82952;SDS011;74888;40.196;44.560;2024-01-06T09:30:31;5.13;;;1.55;;
82952;SDS011;74888;40.196;44.560;2024-01-06T09:32:57;5.90;;;2.10;;
82952;SDS011;74888;40.196;44.560;2024-01-06T09:35:23;7.75;;;2.67;;
82952;SDS011;74888;40.196;44.560;2024-01-06T09:37:49;8.10;;;1.90;;
82952;SDS011;74888;40.196;44.560;2024-01-06T09:40:14;5.72;;;1.90;;
82952;SDS011;74888;40.196;44.560;2024-01-06T09:42:49;7.38;;;2.53;;
82952;SDS011;74888;40.196;44.560;2024-01-06T09:45:15;7.25;;;2.28;;
82952;SDS011;74888;40.196;44.560;2024-01-06T09:50:13;5.38;;;2.03;;
82952;SDS011;74888;40.196;44.560;2024-01-06T09:52:45;6.18;;;2.50;;
82952;SDS011;74888;40.196;44.560;2024-01-06T09:55:17;4.35;;;2.00;;
82952;SDS011;74888;40.196;44.560;2024-01-06T09:57:48;4.65;;;1.50;;
82952;SDS011;74888;40.196;44.560;2024-01-06T10:00:13;7.65;;;2.25;;
82952;SDS011;74888;40.196;44.560;2024-01-06T10:02:42;4.82;;;2.08;;
82952;SDS011;74888;40.196;44.560;2024-01-06T10:05:08;5.82;;;1.83;;
82952;SDS011;74888;40.196;44.560;2024-01-06T10:07:37;4.70;;;2.03;;
82952;SDS011;74888;40.196;44.560;2024-01-06T10:10:02;4.97;;;1.88;;
82952;SDS011;74888;40.196;44.560;2024-01-06T10:12:28;5.97;;;1.88;;
82952;SDS011;74888;40.196;44.560;2024-01-06T10:14:54;3.63;;;1.33;;
82952;SDS011;74888;40.196;44.560;2024-01-06T10:17:20;8.05;;;2.63;;
82952;SDS011;74888;40.196;44.560;2024-01-06T10:19:46;5.13;;;1.55;;
82952;SDS011;74888;40.196;44.560;2024-01-06T10:22:18;3.33;;;0.90;;
82952;SDS011;74888;40.196;44.560;2024-01-06T10:24:43;4.88;;;1.30;;
82952;SDS011;74888;40.196;44.560;2024-01-06T10:27:10;2.97;;;0.93;;
82952;SDS011;74888;40.196;44.560;2024-01-06T10:29:38;10.60;;;2.22;;
82952;SDS011;74888;40.196;44.560;2024-01-06T10:32:05;5.68;;;1.48;;
82952;SDS011;74888;40.196;44.560;2024-01-06T10:34:31;10.43;;;2.40;;
82952;SDS011;74888;40.196;44.560;2024-01-06T10:36:57;5.03;;;1.45;;
82952;SDS011;74888;40.196;44.560;2024-01-06T10:39:26;6.10;;;1.85;;
82952;SDS011;74888;40.196;44.560;2024-01-06T10:41:55;6.72;;;1.90;;
82952;SDS011;74888;40.196;44.560;2024-01-06T10:44:23;3.65;;;1.20;;
82952;SDS011;74888;40.196;44.560;2024-01-06T10:46:50;7.85;;;1.65;;
82952;SDS011;74888;40.196;44.560;2024-01-06T10:49:20;3.42;;;0.98;;
82952;SDS011;74888;40.196;44.560;2024-01-06T10:51:47;2.42;;;1.13;;
82952;SDS011;74888;40.196;44.560;2024-01-06T10:54:14;2.92;;;1.23;;
82952;SDS011;74888;40.196;44.560;2024-01-06T10:56:41;4.68;;;1.33;;
82952;SDS011;74888;40.196;44.560;2024-01-06T10:59:09;4.55;;;1.50;;
82952;SDS011;74888;40.196;44.560;2024-01-06T11:01:37;2.50;;;1.00;;
82952;SDS011;74888;40.196;44.560;2024-01-06T11:04:04;5.25;;;1.65;;
82952;SDS011;74888;40.196;44.560;2024-01-06T11:06:31;5.22;;;1.75;;
82952;SDS011;74888;40.196;44.560;2024-01-06T11:09:06;2.80;;;1.10;;
82952;SDS011;74888;40.196;44.560;2024-01-06T11:11:38;3.20;;;1.20;;
82952;SDS011;74888;40.196;44.560;2024-01-06T11:14:18;4.85;;;1.40;;
82952;SDS011;74888;40.196;44.560;2024-01-06T11:16:45;7.57;;;2.33;;
82952;SDS011;74888;40.196;44.560;2024-01-06T11:19:53;5.18;;;1.50;;
82952;SDS011;74888;40.196;44.560;2024-01-06T11:24:52;3.70;;;1.55;;
82952;SDS011;74888;40.196;44.560;2024-01-06T11:27:24;5.15;;;1.70;;
82952;SDS011;74888;40.196;44.560;2024-01-06T11:29:58;6.55;;;1.60;;
82952;SDS011;74888;40.196;44.560;2024-01-06T11:32:31;13.63;;;3.28;;
82952;SDS011;74888;40.196;44.560;2024-01-06T11:35:07;11.60;;;2.50;;
82952;SDS011;74888;40.196;44.560;2024-01-06T11:37:36;13.23;;;2.90;;
82952;SDS011;74888;40.196;44.560;2024-01-06T11:42:58;7.53;;;2.63;;
82952;SDS011;74888;40.196;44.560;2024-01-06T11:45:24;4.78;;;2.03;;
82952;SDS011;74888;40.196;44.560;2024-01-06T11:47:51;7.53;;;3.15;;
82952;SDS011;74888;40.196;44.560;2024-01-06T11:50:21;13.52;;;3.65;;
82952;SDS011;74888;40.196;44.560;2024-01-06T11:52:48;7.50;;;2.70;;
82952;SDS011;74888;40.196;44.560;2024-01-06T11:55:17;8.20;;;2.90;;
82952;SDS011;74888;40.196;44.560;2024-01-06T11:57:46;5.93;;;2.35;;
82952;SDS011;74888;40.196;44.560;2024-01-06T12:00:13;11.88;;;5.47;;
82952;SDS011;74888;40.196;44.560;2024-01-06T12:02:39;13.18;;;3.33;;
82952;SDS011;74888;40.196;44.560;2024-01-06T12:05:05;8.65;;;2.80;;
82952;SDS011;74888;40.196;44.560;2024-01-06T12:07:38;8.02;;;2.92;;
82952;SDS011;74888;40.196;44.560;2024-01-06T12:10:05;5.47;;;2.03;;
82952;SDS011;74888;40.196;44.560;2024-01-06T12:12:34;3.83;;;1.67;;
82952;SDS011;74888;40.196;44.560;2024-01-06T12:14:59;5.20;;;1.70;;
82952;SDS011;74888;40.196;44.560;2024-01-06T12:17:27;6.00;;;2.13;;
82952;SDS011;74888;40.196;44.560;2024-01-06T12:19:54;5.35;;;1.70;;
82952;SDS011;74888;40.196;44.560;2024-01-06T12:22:20;5.90;;;1.70;;
82952;SDS011;74888;40.196;44.560;2024-01-06T12:24:49;5.53;;;2.47;;
82952;SDS011;74888;40.196;44.560;2024-01-06T12:27:14;4.85;;;2.25;;
82952;SDS011;74888;40.196;44.560;2024-01-06T12:29:42;11.15;;;3.55;;
82952;SDS011;74888;40.196;44.560;2024-01-06T12:32:09;7.60;;;2.60;;
82952;SDS011;74888;40.196;44.560;2024-01-06T12:34:35;4.78;;;1.65;;
82952;SDS011;74888;40.196;44.560;2024-01-06T12:37:01;8.18;;;1.52;;
82952;SDS011;74888;40.196;44.560;2024-01-06T12:39:28;5.25;;;1.83;;
82952;SDS011;74888;40.196;44.560;2024-01-06T12:41:54;5.45;;;2.10;;
82952;SDS011;74888;40.196;44.560;2024-01-06T12:44:21;8.52;;;2.83;;
82952;SDS011;74888;40.196;44.560;2024-01-06T12:46:47;5.28;;;1.88;;
82952;SDS011;74888;40.196;44.560;2024-01-06T12:49:13;13.98;;;2.35;;
82952;SDS011;74888;40.196;44.560;2024-01-06T12:51:39;9.00;;;2.92;;
82952;SDS011;74888;40.196;44.560;2024-01-06T12:54:06;13.68;;;2.67;;
82952;SDS011;74888;40.196;44.560;2024-01-06T12:56:31;5.38;;;1.85;;
82952;SDS011;74888;40.196;44.560;2024-01-06T12:58:57;4.82;;;1.50;;
82952;SDS011;74888;40.196;44.560;2024-01-06T13:01:24;6.07;;;2.10;;
82952;SDS011;74888;40.196;44.560;2024-01-06T13:03:51;6.55;;;2.40;;
82952;SDS011;74888;40.196;44.560;2024-01-06T13:06:19;14.23;;;2.30;;
82952;SDS011;74888;40.196;44.560;2024-01-06T13:08:45;5.97;;;1.77;;
82952;SDS011;74888;40.196;44.560;2024-01-06T13:11:16;7.97;;;2.67;;
82952;SDS011;74888;40.196;44.560;2024-01-06T13:13:44;6.38;;;2.80;;
82952;SDS011;74888;40.196;44.560;2024-01-06T13:16:09;7.93;;;2.35;;
82952;SDS011;74888;40.196;44.560;2024-01-06T13:18:36;8.55;;;2.97;;
82952;SDS011;74888;40.196;44.560;2024-01-06T13:21:02;6.85;;;2.63;;
82952;SDS011;74888;40.196;44.560;2024-01-06T13:23:28;7.28;;;2.20;;
82952;SDS011;74888;40.196;44.560;2024-01-06T13:25:54;9.13;;;2.72;;
82952;SDS011;74888;40.196;44.560;2024-01-06T13:28:22;6.90;;;2.63;;
82952;SDS011;74888;40.196;44.560;2024-01-06T13:30:50;7.80;;;3.40;;
82952;SDS011;74888;40.196;44.560;2024-01-06T13:33:16;8.77;;;3.28;;
82952;SDS011;74888;40.196;44.560;2024-01-06T13:35:42;8.75;;;4.10;;
82952;SDS011;74888;40.196;44.560;2024-01-06T13:38:09;13.02;;;3.80;;
82952;SDS011;74888;40.196;44.560;2024-01-06T13:40:36;8.10;;;3.53;;
82952;SDS011;74888;40.196;44.560;2024-01-06T13:43:02;10.73;;;4.25;;
82952;SDS011;74888;40.196;44.560;2024-01-06T13:45:31;10.60;;;5.18;;
82952;SDS011;74888;40.196;44.560;2024-01-06T13:47:57;10.38;;;4.78;;
82952;SDS011;74888;40.196;44.560;2024-01-06T13:50:23;30.35;;;15.20;;
82952;SDS011;74888;40.196;44.560;2024-01-06T13:52:49;17.52;;;6.88;;
82952;SDS011;74888;40.196;44.560;2024-01-06T13:55:14;12.38;;;3.92;;
82952;SDS011;74888;40.196;44.560;2024-01-06T13:57:40;9.82;;;3.55;;
82952;SDS011;74888;40.196;44.560;2024-01-06T14:00:10;21.40;;;8.07;;
82952;SDS011;74888;40.196;44.560;2024-01-06T14:02:39;18.75;;;7.68;;
82952;SDS011;74888;40.196;44.560;2024-01-06T14:05:05;32.55;;;8.95;;
82952;SDS011;74888;40.196;44.560;2024-01-06T14:07:34;24.70;;;12.60;;
82952;SDS011;74888;40.196;44.560;2024-01-06T14:10:00;29.65;;;16.67;;
82952;SDS011;74888;40.196;44.560;2024-01-06T14:12:30;33.70;;;17.73;;
82952;SDS011;74888;40.196;44.560;2024-01-06T14:14:58;39.45;;;23.75;;
82952;SDS011;74888;40.196;44.560;2024-01-06T14:17:24;97.72;;;54.20;;
82952;SDS011;74888;40.196;44.560;2024-01-06T14:19:50;58.80;;;30.70;;
82952;SDS011;74888;40.196;44.560;2024-01-06T14:22:17;29.63;;;14.00;;
82952;SDS011;74888;40.196;44.560;2024-01-06T14:24:43;34.15;;;16.95;;
82952;SDS011;74888;40.196;44.560;2024-01-06T14:27:09;26.48;;;12.20;;
82952;SDS011;74888;40.196;44.560;2024-01-06T14:29:35;23.77;;;9.93;;
82952;SDS011;74888;40.196;44.560;2024-01-06T14:32:01;18.27;;;8.27;;
82952;SDS011;74888;40.196;44.560;2024-01-06T14:34:27;18.98;;;8.93;;
82952;SDS011;74888;40.196;44.560;2024-01-06T14:36:52;22.30;;;8.55;;
82952;SDS011;74888;40.196;44.560;2024-01-06T14:39:19;18.73;;;7.20;;